sensor_id;sensor_type;location;lat;lon;timestamp;temperature;humidity
45945;DHT22;31655;48.972;10.686;2022-08-19T00:00:25;18.60;99.90
45945;DHT22;31655;48.972;10.686;2022-08-19T00:02:51;18.60;99.90
45945;DHT22;31655;48.972;10.686;2022-08-19T00:05:18;18.60;99.90
45945;DHT22;31655;48.972;10.686;2022-08-19T00:07:44;18.70;99.90
45945;DHT22;31655;48.972;10.686;2022-08-19T00:10:11;18.70;99.90
45945;DHT22;31655;48.972;10.686;2022-08-19T00:12:37;18.60;99.90
45945;DHT22;31655;48.972;10.686;2022-08-19T00:15:05;18.60;99.90
45945;DHT22;31655;48.972;10.686;2022-08-19T00:17:33;18.50;99.90
45945;DHT22;31655;48.972;10.686;2022-08-19T00:19:59;18.50;99.90
45945;DHT22;31655;48.972;10.686;2022-08-19T00:22:24;18.40;99.90
45945;DHT22;31655;48.972;10.686;2022-08-19T00:24:52;18.40;99.90
45945;DHT22;31655;48.972;10.686;2022-08-19T00:27:17;18.30;99.90
45945;DHT22;31655;48.972;10.686;2022-08-19T00:29:43;18.30;99.90
45945;DHT22;31655;48.972;10.686;2022-08-19T00:32:09;18.30;99.90
45945;DHT22;31655;48.972;10.686;2022-08-19T00:34:36;18.30;99.90
45945;DHT22;31655;48.972;10.686;2022-08-19T00:37:01;18.10;99.90
45945;DHT22;31655;48.972;10.686;2022-08-19T00:39:27;18.20;99.90
45945;DHT22;31655;48.972;10.686;2022-08-19T00:41:52;18.30;99.90
45945;DHT22;31655;48.972;10.686;2022-08-19T00:44:21;18.30;99.90
45945;DHT22;31655;48.972;10.686;2022-08-19T00:46:48;18.20;99.90
45945;DHT22;31655;48.972;10.686;2022-08-19T00:51:51;18.20;99.90
45945;DHT22;31655;48.972;10.686;2022-08-19T00:54:19;18.20;99.90
45945;DHT22;31655;48.972;10.686;2022-08-19T00:56:47;18.30;99.90
45945;DHT22;31655;48.972;10.686;2022-08-19T00:59:14;18.30;99.90
45945;DHT22;31655;48.972;10.686;2022-08-19T01:01:42;19.80;99.90
45945;DHT22;31655;48.972;10.686;2022-08-19T01:04:08;18.30;99.90
45945;DHT22;31655;48.972;10.686;2022-08-19T01:06:37;18.20;99.90
45945;DHT22;31655;48.972;10.686;2022-08-19T01:09:04;18.20;99.90
45945;DHT22;31655;48.972;10.686;2022-08-19T01:11:31;18.20;99.90
45945;DHT22;31655;48.972;10.686;2022-08-19T01:13:58;18.20;99.90
45945;DHT22;31655;48.972;10.686;2022-08-19T01:16:27;18.20;99.90
45945;DHT22;31655;48.972;10.686;2022-08-19T01:18:53;18.20;99.90
45945;DHT22;31655;48.972;10.686;2022-08-19T01:21:40;18.20;99.90
45945;DHT22;31655;48.972;10.686;2022-08-19T01:24:07;18.20;99.90
45945;DHT22;31655;48.972;10.686;2022-08-19T01:26:39;18.30;99.90
45945;DHT22;31655;48.972;10.686;2022-08-19T01:29:07;18.20;99.90
45945;DHT22;31655;48.972;10.686;2022-08-19T01:31:33;18.20;99.90
45945;DHT22;31655;48.972;10.686;2022-08-19T01:34:00;18.20;99.90
45945;DHT22;31655;48.972;10.686;2022-08-19T01:36:30;18.30;99.90
45945;DHT22;31655;48.972;10.686;2022-08-19T01:38:56;20.00;99.90
45945;DHT22;31655;48.972;10.686;2022-08-19T01:41:23;18.10;99.90
45945;DHT22;31655;48.972;10.686;2022-08-19T01:43:50;18.00;99.90
45945;DHT22;31655;48.972;10.686;2022-08-19T01:46:17;18.00;99.90
45945;DHT22;31655;48.972;10.686;2022-08-19T01:48:43;18.00;99.90
45945;DHT22;31655;48.972;10.686;2022-08-19T01:51:10;18.00;99.90
45945;DHT22;31655;48.972;10.686;2022-08-19T01:53:37;18.00;99.90
45945;DHT22;31655;48.972;10.686;2022-08-19T01:56:03;18.10;99.90
45945;DHT22;31655;48.972;10.686;2022-08-19T01:58:37;18.00;99.90
45945;DHT22;31655;48.972;10.686;2022-08-19T02:01:05;18.00;99.90
45945;DHT22;31655;48.972;10.686;2022-08-19T02:03:30;18.00;99.90
45945;DHT22;31655;48.972;10.686;2022-08-19T02:05:58;18.00;99.90
45945;DHT22;31655;48.972;10.686;2022-08-19T02:08:29;17.90;99.90
45945;DHT22;31655;48.972;10.686;2022-08-19T02:10:55;17.90;99.90
45945;DHT22;31655;48.972;10.686;2022-08-19T02:13:22;17.90;99.90
45945;DHT22;31655;48.972;10.686;2022-08-19T02:15:48;18.00;99.90
45945;DHT22;31655;48.972;10.686;2022-08-19T02:18:13;20.50;99.90
45945;DHT22;31655;48.972;10.686;2022-08-19T02:20:40;18.00;99.90
45945;DHT22;31655;48.972;10.686;2022-08-19T02:23:07;18.00;99.90
45945;DHT22;31655;48.972;10.686;2022-08-19T02:25:32;18.00;99.90
45945;DHT22;31655;48.972;10.686;2022-08-19T02:27:58;18.00;99.90
45945;DHT22;31655;48.972;10.686;2022-08-19T02:30:24;18.00;99.90
45945;DHT22;31655;48.972;10.686;2022-08-19T02:32:51;18.10;99.90
45945;DHT22;31655;48.972;10.686;2022-08-19T02:35:17;18.00;99.90
45945;DHT22;31655;48.972;10.686;2022-08-19T02:37:43;18.10;99.90
45945;DHT22;31655;48.972;10.686;2022-08-19T02:40:32;20.20;99.90
45945;DHT22;31655;48.972;10.686;2022-08-19T02:43:05;18.10;99.90
45945;DHT22;31655;48.972;10.686;2022-08-19T02:45:34;18.10;99.90
45945;DHT22;31655;48.972;10.686;2022-08-19T02:48:00;18.20;99.90
45945;DHT22;31655;48.972;10.686;2022-08-19T02:50:25;18.10;99.90
45945;DHT22;31655;48.972;10.686;2022-08-19T02:52:51;18.10;99.90
45945;DHT22;31655;48.972;10.686;2022-08-19T02:55:16;18.20;99.90
45945;DHT22;31655;48.972;10.686;2022-08-19T02:57:42;18.10;99.90
45945;DHT22;31655;48.972;10.686;2022-08-19T03:00:08;18.10;99.90
45945;DHT22;31655;48.972;10.686;2022-08-19T03:02:38;18.10;99.90
45945;DHT22;31655;48.972;10.686;2022-08-19T03:05:05;18.10;99.90
45945;DHT22;31655;48.972;10.686;2022-08-19T03:07:30;18.00;99.90
45945;DHT22;31655;48.972;10.686;2022-08-19T03:09:56;18.00;99.90
45945;DHT22;31655;48.972;10.686;2022-08-19T03:12:22;18.00;99.90
45945;DHT22;31655;48.972;10.686;2022-08-19T03:14:47;18.00;99.90
45945;DHT22;31655;48.972;10.686;2022-08-19T03:17:13;18.00;99.90
45945;DHT22;31655;48.972;10.686;2022-08-19T03:19:39;18.20;99.90
45945;DHT22;31655;48.972;10.686;2022-08-19T03:22:05;18.10;99.90
45945;DHT22;31655;48.972;10.686;2022-08-19T03:24:31;18.00;99.90
45945;DHT22;31655;48.972;10.686;2022-08-19T03:26:56;18.00;99.90
45945;DHT22;31655;48.972;10.686;2022-08-19T03:29:23;18.10;99.90
45945;DHT22;31655;48.972;10.686;2022-08-19T03:31:49;18.00;99.90
45945;DHT22;31655;48.972;10.686;2022-08-19T03:34:22;18.00;99.90
45945;DHT22;31655;48.972;10.686;2022-08-19T03:36:48;18.00;99.90
45945;DHT22;31655;48.972;10.686;2022-08-19T03:39:14;17.90;99.90
45945;DHT22;31655;48.972;10.686;2022-08-19T03:41:43;17.90;99.90
45945;DHT22;31655;48.972;10.686;2022-08-19T03:44:08;17.90;99.90
45945;DHT22;31655;48.972;10.686;2022-08-19T03:46:35;17.90;99.90
45945;DHT22;31655;48.972;10.686;2022-08-19T03:49:03;17.80;99.90
45945;DHT22;31655;48.972;10.686;2022-08-19T03:51:36;17.90;99.90
45945;DHT22;31655;48.972;10.686;2022-08-19T03:54:05;17.80;99.90
45945;DHT22;31655;48.972;10.686;2022-08-19T03:56:34;17.90;99.90
45945;DHT22;31655;48.972;10.686;2022-08-19T03:59:01;18.40;99.90
45945;DHT22;31655;48.972;10.686;2022-08-19T04:01:28;17.80;99.90
45945;DHT22;31655;48.972;10.686;2022-08-19T04:03:56;17.80;99.90
45945;DHT22;31655;48.972;10.686;2022-08-19T04:06:31;17.70;99.90
45945;DHT22;31655;48.972;10.686;2022-08-19T04:08:59;17.70;99.90
45945;DHT22;31655;48.972;10.686;2022-08-19T04:11:29;18.00;99.90
45945;DHT22;31655;48.972;10.686;2022-08-19T04:13:56;17.80;99.90
45945;DHT22;31655;48.972;10.686;2022-08-19T04:16:24;17.70;99.90
45945;DHT22;31655;48.972;10.686;2022-08-19T04:18:50;17.80;99.90
45945;DHT22;31655;48.972;10.686;2022-08-19T04:21:24;17.80;99.90
45945;DHT22;31655;48.972;10.686;2022-08-19T04:23:50;17.90;99.90
45945;DHT22;31655;48.972;10.686;2022-08-19T04:26:36;18.30;99.90
45945;DHT22;31655;48.972;10.686;2022-08-19T04:29:09;17.90;99.90
45945;DHT22;31655;48.972;10.686;2022-08-19T04:31:35;17.90;99.90
45945;DHT22;31655;48.972;10.686;2022-08-19T04:34:02;18.00;99.90
45945;DHT22;31655;48.972;10.686;2022-08-19T04:36:31;17.80;99.90
45945;DHT22;31655;48.972;10.686;2022-08-19T04:39:00;18.00;99.90
45945;DHT22;31655;48.972;10.686;2022-08-19T04:41:28;18.00;99.90
45945;DHT22;31655;48.972;10.686;2022-08-19T04:44:12;17.90;99.90
45945;DHT22;31655;48.972;10.686;2022-08-19T04:46:39;18.10;99.90
45945;DHT22;31655;48.972;10.686;2022-08-19T04:49:05;18.10;99.90
45945;DHT22;31655;48.972;10.686;2022-08-19T04:51:32;18.10;99.90
45945;DHT22;31655;48.972;10.686;2022-08-19T04:53:58;18.10;99.90
45945;DHT22;31655;48.972;10.686;2022-08-19T04:56:26;18.20;99.90
45945;DHT22;31655;48.972;10.686;2022-08-19T04:58:53;18.20;99.90
45945;DHT22;31655;48.972;10.686;2022-08-19T05:01:22;18.20;99.90
45945;DHT22;31655;48.972;10.686;2022-08-19T05:03:49;18.10;99.90
45945;DHT22;31655;48.972;10.686;2022-08-19T05:06:17;18.10;99.90
45945;DHT22;31655;48.972;10.686;2022-08-19T05:08:44;18.00;99.90
45945;DHT22;31655;48.972;10.686;2022-08-19T05:13:41;18.00;99.90
45945;DHT22;31655;48.972;10.686;2022-08-19T05:16:09;17.80;99.90
45945;DHT22;31655;48.972;10.686;2022-08-19T05:18:35;17.90;99.90
45945;DHT22;31655;48.972;10.686;2022-08-19T05:21:20;18.00;99.90
45945;DHT22;31655;48.972;10.686;2022-08-19T05:24:05;18.00;99.90
45945;DHT22;31655;48.972;10.686;2022-08-19T05:26:35;18.00;99.90
45945;DHT22;31655;48.972;10.686;2022-08-19T05:29:00;18.00;99.90
45945;DHT22;31655;48.972;10.686;2022-08-19T05:31:26;18.10;99.90
45945;DHT22;31655;48.972;10.686;2022-08-19T05:33:51;18.20;99.90
45945;DHT22;31655;48.972;10.686;2022-08-19T05:36:17;18.20;99.90
45945;DHT22;31655;48.972;10.686;2022-08-19T05:38:45;18.20;99.90
45945;DHT22;31655;48.972;10.686;2022-08-19T05:41:14;18.10;99.90
45945;DHT22;31655;48.972;10.686;2022-08-19T05:43:41;18.10;99.90
45945;DHT22;31655;48.972;10.686;2022-08-19T05:46:07;18.10;99.90
45945;DHT22;31655;48.972;10.686;2022-08-19T05:48:34;18.20;99.90
45945;DHT22;31655;48.972;10.686;2022-08-19T05:51:07;18.10;99.90
45945;DHT22;31655;48.972;10.686;2022-08-19T05:53:34;18.10;99.90
45945;DHT22;31655;48.972;10.686;2022-08-19T05:56:08;18.20;99.90
45945;DHT22;31655;48.972;10.686;2022-08-19T05:58:35;18.10;99.90
45945;DHT22;31655;48.972;10.686;2022-08-19T06:01:00;18.20;99.90
45945;DHT22;31655;48.972;10.686;2022-08-19T06:03:30;18.20;99.90
45945;DHT22;31655;48.972;10.686;2022-08-19T06:05:57;18.20;99.90
45945;DHT22;31655;48.972;10.686;2022-08-19T06:08:24;18.20;99.90
45945;DHT22;31655;48.972;10.686;2022-08-19T06:10:50;18.30;99.90
45945;DHT22;31655;48.972;10.686;2022-08-19T06:13:15;18.30;99.90
45945;DHT22;31655;48.972;10.686;2022-08-19T06:15:41;18.50;99.90
45945;DHT22;31655;48.972;10.686;2022-08-19T06:18:09;18.40;99.90
45945;DHT22;31655;48.972;10.686;2022-08-19T06:20:35;18.40;99.90
45945;DHT22;31655;48.972;10.686;2022-08-19T06:23:00;19.60;99.90
45945;DHT22;31655;48.972;10.686;2022-08-19T06:25:26;18.50;99.90
45945;DHT22;31655;48.972;10.686;2022-08-19T06:27:51;18.60;99.90
45945;DHT22;31655;48.972;10.686;2022-08-19T06:30:18;18.40;99.90
45945;DHT22;31655;48.972;10.686;2022-08-19T06:32:43;18.50;99.90
45945;DHT22;31655;48.972;10.686;2022-08-19T06:35:09;18.40;99.90
45945;DHT22;31655;48.972;10.686;2022-08-19T06:37:36;18.50;99.90
45945;DHT22;31655;48.972;10.686;2022-08-19T06:40:03;18.50;99.90
45945;DHT22;31655;48.972;10.686;2022-08-19T06:42:29;18.70;99.90
45945;DHT22;31655;48.972;10.686;2022-08-19T06:44:55;18.90;99.90
45945;DHT22;31655;48.972;10.686;2022-08-19T06:47:21;18.90;99.90
45945;DHT22;31655;48.972;10.686;2022-08-19T06:49:47;18.90;99.90
45945;DHT22;31655;48.972;10.686;2022-08-19T06:52:13;18.90;99.90
45945;DHT22;31655;48.972;10.686;2022-08-19T06:54:40;18.90;99.90
45945;DHT22;31655;48.972;10.686;2022-08-19T06:57:07;18.90;99.90
45945;DHT22;31655;48.972;10.686;2022-08-19T06:59:38;18.80;99.90
45945;DHT22;31655;48.972;10.686;2022-08-19T07:02:05;18.90;99.90
45945;DHT22;31655;48.972;10.686;2022-08-19T07:04:33;18.90;99.90
45945;DHT22;31655;48.972;10.686;2022-08-19T07:07:03;18.90;99.90
45945;DHT22;31655;48.972;10.686;2022-08-19T07:09:31;19.00;99.90
45945;DHT22;31655;48.972;10.686;2022-08-19T07:11:57;19.00;99.90
45945;DHT22;31655;48.972;10.686;2022-08-19T07:14:25;19.10;99.90
45945;DHT22;31655;48.972;10.686;2022-08-19T07:16:53;19.10;99.90
45945;DHT22;31655;48.972;10.686;2022-08-19T07:19:21;19.00;99.90
45945;DHT22;31655;48.972;10.686;2022-08-19T07:21:49;19.10;99.90
45945;DHT22;31655;48.972;10.686;2022-08-19T07:24:15;18.80;99.90
45945;DHT22;31655;48.972;10.686;2022-08-19T07:26:43;20.70;99.90
45945;DHT22;31655;48.972;10.686;2022-08-19T07:29:10;19.00;99.90
45945;DHT22;31655;48.972;10.686;2022-08-19T07:31:36;18.90;99.90
45945;DHT22;31655;48.972;10.686;2022-08-19T07:34:04;18.90;99.90
45945;DHT22;31655;48.972;10.686;2022-08-19T07:36:35;19.00;99.90
45945;DHT22;31655;48.972;10.686;2022-08-19T07:39:05;20.40;99.90
45945;DHT22;31655;48.972;10.686;2022-08-19T07:41:31;19.00;99.90
45945;DHT22;31655;48.972;10.686;2022-08-19T07:43:59;18.80;99.90
45945;DHT22;31655;48.972;10.686;2022-08-19T07:46:31;18.90;99.90
45945;DHT22;31655;48.972;10.686;2022-08-19T07:48:57;18.70;99.90
45945;DHT22;31655;48.972;10.686;2022-08-19T07:51:22;18.90;99.90
45945;DHT22;31655;48.972;10.686;2022-08-19T07:53:49;19.30;99.90
45945;DHT22;31655;48.972;10.686;2022-08-19T07:56:17;18.80;99.90
45945;DHT22;31655;48.972;10.686;2022-08-19T07:58:45;18.90;99.90
45945;DHT22;31655;48.972;10.686;2022-08-19T08:01:15;19.20;99.90
45945;DHT22;31655;48.972;10.686;2022-08-19T08:03:41;19.00;99.90
45945;DHT22;31655;48.972;10.686;2022-08-19T08:06:25;18.90;99.90
45945;DHT22;31655;48.972;10.686;2022-08-19T08:09:12;19.00;99.90
45945;DHT22;31655;48.972;10.686;2022-08-19T08:11:55;19.10;99.90
45945;DHT22;31655;48.972;10.686;2022-08-19T08:14:34;19.20;99.90
45945;DHT22;31655;48.972;10.686;2022-08-19T08:17:01;19.20;99.90
45945;DHT22;31655;48.972;10.686;2022-08-19T08:19:28;19.50;99.90
45945;DHT22;31655;48.972;10.686;2022-08-19T08:21:56;19.70;99.90
45945;DHT22;31655;48.972;10.686;2022-08-19T08:24:23;19.80;99.90
45945;DHT22;31655;48.972;10.686;2022-08-19T08:26:49;19.80;99.90
45945;DHT22;31655;48.972;10.686;2022-08-19T08:29:14;20.10;99.90
45945;DHT22;31655;48.972;10.686;2022-08-19T08:31:42;20.30;99.90
45945;DHT22;31655;48.972;10.686;2022-08-19T08:34:08;20.50;99.90
45945;DHT22;31655;48.972;10.686;2022-08-19T08:36:41;20.50;99.90
45945;DHT22;31655;48.972;10.686;2022-08-19T08:39:09;20.70;99.90
45945;DHT22;31655;48.972;10.686;2022-08-19T08:42:08;20.70;99.90
45945;DHT22;31655;48.972;10.686;2022-08-19T08:45:42;20.70;99.90
45945;DHT22;31655;48.972;10.686;2022-08-19T08:47:38;20.60;99.90
45945;DHT22;31655;48.972;10.686;2022-08-19T08:50:08;20.60;99.90
45945;DHT22;31655;48.972;10.686;2022-08-19T08:52:39;20.60;99.90
45945;DHT22;31655;48.972;10.686;2022-08-19T08:55:11;20.60;99.90
45945;DHT22;31655;48.972;10.686;2022-08-19T08:57:51;20.50;99.90
45945;DHT22;31655;48.972;10.686;2022-08-19T09:00:27;20.50;99.90
45945;DHT22;31655;48.972;10.686;2022-08-19T09:02:55;20.30;99.90
45945;DHT22;31655;48.972;10.686;2022-08-19T09:05:23;20.30;99.90
45945;DHT22;31655;48.972;10.686;2022-08-19T09:08:10;21.10;99.90
45945;DHT22;31655;48.972;10.686;2022-08-19T09:10:50;20.20;99.90
45945;DHT22;31655;48.972;10.686;2022-08-19T09:13:49;20.10;99.90
45945;DHT22;31655;48.972;10.686;2022-08-19T09:16:20;20.10;99.90
45945;DHT22;31655;48.972;10.686;2022-08-19T09:18:52;20.30;99.90
45945;DHT22;31655;48.972;10.686;2022-08-19T09:21:19;20.40;99.90
45945;DHT22;31655;48.972;10.686;2022-08-19T09:23:46;20.60;99.90
45945;DHT22;31655;48.972;10.686;2022-08-19T09:26:14;20.50;99.90
45945;DHT22;31655;48.972;10.686;2022-08-19T09:28:41;20.50;99.90
45945;DHT22;31655;48.972;10.686;2022-08-19T09:31:10;20.60;99.90
45945;DHT22;31655;48.972;10.686;2022-08-19T09:33:36;20.70;99.90
45945;DHT22;31655;48.972;10.686;2022-08-19T09:36:07;22.10;99.90
45945;DHT22;31655;48.972;10.686;2022-08-19T09:38:34;20.80;99.90
45945;DHT22;31655;48.972;10.686;2022-08-19T09:41:08;21.00;99.90
45945;DHT22;31655;48.972;10.686;2022-08-19T09:43:34;21.10;99.90
45945;DHT22;31655;48.972;10.686;2022-08-19T09:46:03;20.90;99.90
45945;DHT22;31655;48.972;10.686;2022-08-19T09:48:31;20.60;99.90
45945;DHT22;31655;48.972;10.686;2022-08-19T09:51:06;20.40;99.90
45945;DHT22;31655;48.972;10.686;2022-08-19T09:53:34;20.30;99.90
45945;DHT22;31655;48.972;10.686;2022-08-19T09:56:00;20.30;99.90
45945;DHT22;31655;48.972;10.686;2022-08-19T09:58:26;20.20;99.90
45945;DHT22;31655;48.972;10.686;2022-08-19T10:00:54;20.30;99.90
45945;DHT22;31655;48.972;10.686;2022-08-19T10:03:20;20.30;99.90
45945;DHT22;31655;48.972;10.686;2022-08-19T10:05:45;20.20;99.90
45945;DHT22;31655;48.972;10.686;2022-08-19T10:08:16;20.20;99.90
45945;DHT22;31655;48.972;10.686;2022-08-19T10:10:42;20.30;99.90
45945;DHT22;31655;48.972;10.686;2022-08-19T10:13:09;21.40;99.90
45945;DHT22;31655;48.972;10.686;2022-08-19T10:15:35;20.20;99.90
45945;DHT22;31655;48.972;10.686;2022-08-19T10:18:01;20.10;99.90
45945;DHT22;31655;48.972;10.686;2022-08-19T10:20:26;20.00;99.90
45945;DHT22;31655;48.972;10.686;2022-08-19T10:22:52;19.90;99.90
45945;DHT22;31655;48.972;10.686;2022-08-19T10:25:18;19.70;99.90
45945;DHT22;31655;48.972;10.686;2022-08-19T10:27:43;19.70;99.90
45945;DHT22;31655;48.972;10.686;2022-08-19T10:30:10;19.60;99.90
45945;DHT22;31655;48.972;10.686;2022-08-19T10:32:35;19.60;99.90
45945;DHT22;31655;48.972;10.686;2022-08-19T10:35:03;19.50;99.90
45945;DHT22;31655;48.972;10.686;2022-08-19T10:37:34;19.60;99.90
45945;DHT22;31655;48.972;10.686;2022-08-19T10:39:59;19.60;99.90
45945;DHT22;31655;48.972;10.686;2022-08-19T10:42:25;21.80;99.90
45945;DHT22;31655;48.972;10.686;2022-08-19T10:44:51;19.70;99.90
45945;DHT22;31655;48.972;10.686;2022-08-19T10:47:16;19.60;99.90
45945;DHT22;31655;48.972;10.686;2022-08-19T10:49:42;20.10;99.90
45945;DHT22;31655;48.972;10.686;2022-08-19T10:52:26;19.60;99.90
45945;DHT22;31655;48.972;10.686;2022-08-19T10:55:05;19.40;99.90
45945;DHT22;31655;48.972;10.686;2022-08-19T10:57:49;19.40;99.90
45945;DHT22;31655;48.972;10.686;2022-08-19T11:00:15;19.30;99.90
45945;DHT22;31655;48.972;10.686;2022-08-19T11:02:41;19.30;99.90
45945;DHT22;31655;48.972;10.686;2022-08-19T11:05:08;19.30;99.90
45945;DHT22;31655;48.972;10.686;2022-08-19T11:07:36;19.30;99.90
45945;DHT22;31655;48.972;10.686;2022-08-19T11:10:03;19.30;99.90
45945;DHT22;31655;48.972;10.686;2022-08-19T11:12:29;19.40;99.90
45945;DHT22;31655;48.972;10.686;2022-08-19T11:14:54;19.40;99.90
45945;DHT22;31655;48.972;10.686;2022-08-19T11:17:20;19.30;99.90
45945;DHT22;31655;48.972;10.686;2022-08-19T11:19:48;19.50;99.90
45945;DHT22;31655;48.972;10.686;2022-08-19T11:22:14;19.50;99.90
45945;DHT22;31655;48.972;10.686;2022-08-19T11:24:40;19.40;99.90
45945;DHT22;31655;48.972;10.686;2022-08-19T11:27:08;19.60;99.90
45945;DHT22;31655;48.972;10.686;2022-08-19T11:29:36;19.70;99.90
45945;DHT22;31655;48.972;10.686;2022-08-19T11:32:05;19.50;99.90
45945;DHT22;31655;48.972;10.686;2022-08-19T11:34:33;19.60;99.90
45945;DHT22;31655;48.972;10.686;2022-08-19T11:37:01;19.80;99.90
45945;DHT22;31655;48.972;10.686;2022-08-19T11:39:28;19.80;99.90
45945;DHT22;31655;48.972;10.686;2022-08-19T11:41:57;19.80;99.90
45945;DHT22;31655;48.972;10.686;2022-08-19T11:44:23;19.90;99.90
45945;DHT22;31655;48.972;10.686;2022-08-19T11:46:48;19.70;99.90
45945;DHT22;31655;48.972;10.686;2022-08-19T11:49:16;19.90;99.90
45945;DHT22;31655;48.972;10.686;2022-08-19T11:51:44;19.90;99.90
45945;DHT22;31655;48.972;10.686;2022-08-19T11:54:11;19.90;99.90
45945;DHT22;31655;48.972;10.686;2022-08-19T11:56:37;21.00;99.90
45945;DHT22;31655;48.972;10.686;2022-08-19T11:59:03;19.70;99.90
45945;DHT22;31655;48.972;10.686;2022-08-19T12:01:29;19.50;99.90
45945;DHT22;31655;48.972;10.686;2022-08-19T12:03:56;19.50;99.90
45945;DHT22;31655;48.972;10.686;2022-08-19T12:06:24;19.40;99.90
45945;DHT22;31655;48.972;10.686;2022-08-19T12:08:51;19.30;99.90
45945;DHT22;31655;48.972;10.686;2022-08-19T12:11:16;19.30;99.90
45945;DHT22;31655;48.972;10.686;2022-08-19T12:13:42;19.30;99.90
45945;DHT22;31655;48.972;10.686;2022-08-19T12:16:14;19.20;99.90
45945;DHT22;31655;48.972;10.686;2022-08-19T12:18:41;19.20;99.90
45945;DHT22;31655;48.972;10.686;2022-08-19T12:21:09;19.20;99.90
45945;DHT22;31655;48.972;10.686;2022-08-19T12:23:36;19.20;99.90
45945;DHT22;31655;48.972;10.686;2022-08-19T12:26:04;19.00;99.90
45945;DHT22;31655;48.972;10.686;2022-08-19T12:28:30;19.20;99.90
45945;DHT22;31655;48.972;10.686;2022-08-19T12:30:56;19.20;99.90
45945;DHT22;31655;48.972;10.686;2022-08-19T12:33:23;19.30;99.90
45945;DHT22;31655;48.972;10.686;2022-08-19T12:35:53;19.30;99.90
45945;DHT22;31655;48.972;10.686;2022-08-19T12:38:19;19.40;99.90
45945;DHT22;31655;48.972;10.686;2022-08-19T12:40:48;19.20;99.90
45945;DHT22;31655;48.972;10.686;2022-08-19T12:43:15;19.20;99.90
45945;DHT22;31655;48.972;10.686;2022-08-19T12:45:44;19.20;99.90
45945;DHT22;31655;48.972;10.686;2022-08-19T12:48:10;19.00;99.90
45945;DHT22;31655;48.972;10.686;2022-08-19T12:50:38;19.00;99.90
45945;DHT22;31655;48.972;10.686;2022-08-19T12:53:04;18.80;99.90
45945;DHT22;31655;48.972;10.686;2022-08-19T12:55:30;18.70;99.90
45945;DHT22;31655;48.972;10.686;2022-08-19T12:57:55;18.70;99.90
45945;DHT22;31655;48.972;10.686;2022-08-19T13:00:22;18.60;99.90
45945;DHT22;31655;48.972;10.686;2022-08-19T13:02:50;18.50;99.90
45945;DHT22;31655;48.972;10.686;2022-08-19T13:05:21;18.30;99.90
45945;DHT22;31655;48.972;10.686;2022-08-19T13:07:48;18.20;99.90
45945;DHT22;31655;48.972;10.686;2022-08-19T13:10:17;18.20;99.90
45945;DHT22;31655;48.972;10.686;2022-08-19T13:12:44;18.70;99.90
45945;DHT22;31655;48.972;10.686;2022-08-19T13:15:11;18.00;99.90
45945;DHT22;31655;48.972;10.686;2022-08-19T13:17:38;18.00;99.90
45945;DHT22;31655;48.972;10.686;2022-08-19T13:20:04;18.00;99.90
45945;DHT22;31655;48.972;10.686;2022-08-19T13:22:32;18.00;99.90
45945;DHT22;31655;48.972;10.686;2022-08-19T13:24:58;17.90;99.90
45945;DHT22;31655;48.972;10.686;2022-08-19T13:27:24;17.90;99.90
45945;DHT22;31655;48.972;10.686;2022-08-19T13:29:49;18.00;99.90
45945;DHT22;31655;48.972;10.686;2022-08-19T13:32:33;18.20;99.90
45945;DHT22;31655;48.972;10.686;2022-08-19T13:35:17;17.80;99.90
45945;DHT22;31655;48.972;10.686;2022-08-19T13:37:43;17.90;99.90
45945;DHT22;31655;48.972;10.686;2022-08-19T13:40:19;18.00;99.90
45945;DHT22;31655;48.972;10.686;2022-08-19T13:42:47;17.90;99.90
45945;DHT22;31655;48.972;10.686;2022-08-19T13:45:19;17.90;99.90
45945;DHT22;31655;48.972;10.686;2022-08-19T13:47:56;17.90;99.90
45945;DHT22;31655;48.972;10.686;2022-08-19T13:50:24;17.90;99.90
45945;DHT22;31655;48.972;10.686;2022-08-19T13:52:51;17.80;99.90
45945;DHT22;31655;48.972;10.686;2022-08-19T13:55:17;17.80;99.90
45945;DHT22;31655;48.972;10.686;2022-08-19T13:57:43;17.80;99.90
45945;DHT22;31655;48.972;10.686;2022-08-19T14:00:14;18.40;99.90
45945;DHT22;31655;48.972;10.686;2022-08-19T14:02:41;17.80;99.90
45945;DHT22;31655;48.972;10.686;2022-08-19T14:05:10;17.80;99.90
45945;DHT22;31655;48.972;10.686;2022-08-19T14:07:36;17.80;99.90
45945;DHT22;31655;48.972;10.686;2022-08-19T14:10:05;17.80;99.90
45945;DHT22;31655;48.972;10.686;2022-08-19T14:12:31;17.80;99.90
45945;DHT22;31655;48.972;10.686;2022-08-19T14:14:58;17.80;99.90
45945;DHT22;31655;48.972;10.686;2022-08-19T14:17:23;17.80;99.90
45945;DHT22;31655;48.972;10.686;2022-08-19T14:19:55;17.80;99.90
45945;DHT22;31655;48.972;10.686;2022-08-19T14:22:21;17.80;99.90
45945;DHT22;31655;48.972;10.686;2022-08-19T14:24:46;17.70;99.90
45945;DHT22;31655;48.972;10.686;2022-08-19T14:27:13;18.40;99.90
45945;DHT22;31655;48.972;10.686;2022-08-19T14:29:38;17.70;99.90
45945;DHT22;31655;48.972;10.686;2022-08-19T14:32:04;17.70;99.90
45945;DHT22;31655;48.972;10.686;2022-08-19T14:34:30;17.70;99.90
45945;DHT22;31655;48.972;10.686;2022-08-19T14:36:57;17.60;99.90
45945;DHT22;31655;48.972;10.686;2022-08-19T14:39:23;18.10;99.90
45945;DHT22;31655;48.972;10.686;2022-08-19T14:41:48;17.60;99.90
45945;DHT22;31655;48.972;10.686;2022-08-19T14:44:14;17.60;99.90
45945;DHT22;31655;48.972;10.686;2022-08-19T14:46:40;17.60;99.90
45945;DHT22;31655;48.972;10.686;2022-08-19T14:49:06;17.50;99.90
45945;DHT22;31655;48.972;10.686;2022-08-19T14:51:32;17.50;99.90
45945;DHT22;31655;48.972;10.686;2022-08-19T14:53:58;17.50;99.90
45945;DHT22;31655;48.972;10.686;2022-08-19T14:56:26;17.50;99.90
45945;DHT22;31655;48.972;10.686;2022-08-19T14:58:52;17.50;99.90
45945;DHT22;31655;48.972;10.686;2022-08-19T15:01:21;17.40;99.90
45945;DHT22;31655;48.972;10.686;2022-08-19T15:03:47;17.50;99.90
45945;DHT22;31655;48.972;10.686;2022-08-19T15:06:13;17.50;99.90
45945;DHT22;31655;48.972;10.686;2022-08-19T15:08:39;17.50;99.90
45945;DHT22;31655;48.972;10.686;2022-08-19T15:11:11;17.40;99.90
45945;DHT22;31655;48.972;10.686;2022-08-19T15:13:38;17.40;99.90
45945;DHT22;31655;48.972;10.686;2022-08-19T15:16:05;17.40;99.90
45945;DHT22;31655;48.972;10.686;2022-08-19T15:18:30;17.30;99.90
45945;DHT22;31655;48.972;10.686;2022-08-19T15:20:58;17.30;99.90
45945;DHT22;31655;48.972;10.686;2022-08-19T15:23:25;17.30;99.90
45945;DHT22;31655;48.972;10.686;2022-08-19T15:25:50;17.30;99.90